Surface Data

84.6 °F / 29.2 °C
E at 14 MPH
72%
74.8°F / 23.8 °C
29.89" (1012 mb)
10 mile(s)
partly cloudy
2021.04.20 2300 UTC

Surface Data

Raw METARs

2021/04/20 23:00
PKWA 202300Z AUTO 08012KT 10SM SCT035 SCT045 29/24 A2989 RMK AO2 T02920238

Translated METAR

Kwajalein, Bucholz AAF, Kwajalein KMR ATOL Airport, Marshall Islands (PKWA) 08-43N 167-44E 2M
Apr 20, 2021 - 07:00 PM EDT / 2021.04.20 2300 UTC
Wind: from the E (080 degrees) at 14 MPH (12 KT):0
Visibility: 10 mile(s):0
Sky conditions: partly cloudy
Temperature: 84.6 F (29.2 C)
Dew Point: 74.8 F (23.8 C)
Relative Humidity: 72%
Pressure (altimeter): 29.89 in. Hg (1012 hPa)
ob: PKWA 202300Z AUTO 08012KT 10SM SCT035 SCT045 29/24 A2989 RMK AO2 T02920238
cycle: 23